Airfield :
LOGIN :

Register | Disclaimer

   EN    FR    IT 

 










Legend :    VFR   Marginal VFR   IFR   Intensive IFR   Very Intensive IFR
Visi :
Ceiling :
>= 8 km
>= 3000ft
5 to 8 km
1000 to 3000 ft
1500m to 5 km
500 to 1000 ft
800 to 1500m
200 to 500 ft
< 800m
< 200 ft
Symbols :   Thunderstorms  Fog  Heavy snow  Heavy precipitations  Wind > 20 kt
SIGMETs :     Misc.  Thunderstorms  Icing  Turbulence  Mountain Waves  Volcanic Ashes







- Airport Elevation : 433 ft
- Download approach charts


LFOC - Chateaudun

CURRENT METAR :
  • 211930Z AUTO VRB07KT CAVOK 17/08 Q1025

EXPIRED METARs :
  • 211900Z AUTO VRB09KT CAVOK 17/08 Q1025
  • 211830Z AUTO 01010KT 300V110 CAVOK 18/08 Q1024
  • 211800Z AUTO VRB11KT CAVOK 19/08 Q1024
  • 211730Z AUTO VRB12KT CAVOK 20/07 Q1024
  • 211700Z AUTO VRB13KT CAVOK 20/08 Q1024
  • 211630Z AUTO VRB12KT CAVOK 21/07 Q1023 NOSIG

TAF TAF LFOC
Valid from the 21 at 09:00 until the 22 at 09:00 UTC


210800Z 2109/2209 36012KT 9999 BKN015
BECMG 2110/2112 SCT025 SCT040
TEMPO 2112/2116 36015G25KT
BECMG 2116/2118 CAVOK
No reported NOTAMs for that airfield.



MET'MAP, your aeronautical weather chart ! - Copyright ORBIFLY December 2007 - Disclaimer

ORBIFLY MET'MAP TEAM :

Programming & Development : Alexandra Zaïnal
Concept & Development : Baudouin d'Aumeries
Co-Development & Prog : Marc-Olivier Méhu
Technical & hardware support : Manuel Goepfert

Contact : metmap@orbifly.com




SOURCES & CREDITS :

   NOAA